Merrian, Pennsylvania
Current Conditions -  °F | °C
As of 9:53 PM on Sunday 21 Dec 2014 (Local Time) from KSEG Reporting Station
Clear Clear  
Wind Chill: 23°   Ceiling: Unl
Heat Index: 23°   Visibility: 7mi
Dew Point: 20°   Wind: 0mph
Humidity: 88%   Direction: NA
Pressure: 30.34"   Gusts: NA
Location:  40.7952°N, 76.4365°W
Report Text: KSEG 220253Z AUTO 00000KT 7SM CLR M05/M07 A3034 RMK AO2 SLP278 T10501067 55002
Loading
Personal Weather Stations






























Interactive Weather Map New forecast layout! Learn more

10-Day Weather Forecast

Advertisements
Track Severe Weather on mobile